createdAt,value
2023-04-01T00:00:56.306Z,47.44
2023-04-01T00:01:56.322Z,48.07
2023-04-01T00:02:56.332Z,34.64
2023-04-01T00:03:56.355Z,39.62
2023-04-01T00:04:56.318Z,29.96
2023-04-01T00:05:56.317Z,26.73
2023-04-01T00:06:56.294Z,36.06
2023-04-01T00:07:56.327Z,36.16
2023-04-01T00:08:56.318Z,41.50
2023-04-01T00:09:56.324Z,48.74
2023-04-01T00:10:56.297Z,49.68
2023-04-01T00:11:56.309Z,51.57
2023-04-01T00:12:56.304Z,52.28
2023-04-01T00:13:56.331Z,44.42
2023-04-01T00:14:56.317Z,45.78
2023-04-01T00:15:56.586Z,33.35
2023-04-01T00:16:56.347Z,37.87
2023-04-01T00:17:56.326Z,34.22
2023-04-01T00:18:56.325Z,43.48
2023-04-01T00:19:56.318Z,49.48
2023-04-01T00:20:56.331Z,44.69
2023-04-01T00:21:56.313Z,47.43
2023-04-01T00:22:56.321Z,44.38
2023-04-01T00:23:56.360Z,38.50
2023-04-01T00:24:56.345Z,40.51
2023-04-01T00:25:56.327Z,43.06
2023-04-01T00:26:56.334Z,53.77
2023-04-01T00:27:56.344Z,44.55
2023-04-01T00:28:56.339Z,52.37
2023-04-01T00:29:56.348Z,50.58
2023-04-01T00:30:56.360Z,52.33
2023-04-01T00:31:56.397Z,55.19
2023-04-01T00:32:56.410Z,48.69
2023-04-01T00:33:56.393Z,53.70
2023-04-01T00:34:56.383Z,55.12
2023-04-01T00:35:56.420Z,53.71
2023-04-01T00:36:56.393Z,59.87
2023-04-01T00:37:56.388Z,46.19
2023-04-01T00:38:56.386Z,46.71
2023-04-01T00:39:56.393Z,53.32
2023-04-01T00:40:56.380Z,56.68
2023-04-01T00:41:56.384Z,60.41
2023-04-01T00:42:56.385Z,56.72
2023-04-01T00:43:56.401Z,65.55
2023-04-01T00:44:56.400Z,64.23
2023-04-01T00:45:56.411Z,64.38
2023-04-01T00:46:56.438Z,66.97
2023-04-01T00:47:56.424Z,67.47
2023-04-01T00:48:56.462Z,67.41
2023-04-01T00:49:56.469Z,67.11
2023-04-01T00:50:56.442Z,67.17
2023-04-01T00:51:56.441Z,68.94
2023-04-01T00:52:56.449Z,72.02
2023-04-01T00:53:56.447Z,68.67
2023-04-01T00:54:56.478Z,67.10
2023-04-01T00:55:56.455Z,64.66
2023-04-01T00:56:56.502Z,68.56
2023-04-01T00:57:56.475Z,70.85
2023-04-01T00:58:56.503Z,77.84
2023-04-01T00:59:56.495Z,75.80
2023-04-01T01:00:56.570Z,72.50
2023-04-01T01:01:56.539Z,75.01
2023-04-01T01:02:56.550Z,75.75
2023-04-01T01:03:56.530Z,76.07
2023-04-01T01:04:56.531Z,71.83
2023-04-01T01:05:56.529Z,65.59
2023-04-01T01:06:56.550Z,67.34
2023-04-01T01:07:56.565Z,74.18
2023-04-01T01:08:56.552Z,72.70
2023-04-01T01:09:56.576Z,79.53
2023-04-01T01:10:56.578Z,78.62
2023-04-01T01:11:56.571Z,80.06
2023-04-01T01:12:56.592Z,80.06
2023-04-01T01:13:56.587Z,74.71
2023-04-01T01:14:56.592Z,74.74
2023-04-01T01:15:56.576Z,76.07
2023-04-01T01:16:56.695Z,77.78
2023-04-01T01:17:56.596Z,79.28
2023-04-01T01:18:56.602Z,81.91
2023-04-01T01:19:56.615Z,79.99
2023-04-01T01:20:56.619Z,68.16
2023-04-01T01:21:56.630Z,70.78
2023-04-01T01:22:56.637Z,81.73
2023-04-01T01:23:56.634Z,81.57
2023-04-01T01:24:56.626Z,80.07
2023-04-01T01:25:56.639Z,78.33
2023-04-01T01:26:56.662Z,80.78
2023-04-01T01:27:56.657Z,73.67
2023-04-01T01:28:56.663Z,79.62
2023-04-01T01:29:56.688Z,84.21
2023-04-01T01:30:56.703Z,76.72
2023-04-01T01:31:56.671Z,81.43
2023-04-01T01:32:56.689Z,71.83
2023-04-01T01:33:56.724Z,71.84
2023-04-01T01:34:56.732Z,74.85
2023-04-01T01:35:56.762Z,72.43
2023-04-01T01:36:56.698Z,74.90
2023-04-01T01:37:56.738Z,77.56
2023-04-01T01:38:56.702Z,76.32
2023-04-01T01:39:56.773Z,78.12
2023-04-01T01:40:56.736Z,75.58
2023-04-01T01:41:56.776Z,72.33
2023-04-01T01:42:56.783Z,77.28
2023-04-01T01:43:56.745Z,81.29
2023-04-01T01:44:56.770Z,78.78
2023-04-01T01:45:56.820Z,72.68
2023-04-01T01:46:56.761Z,80.84
2023-04-01T01:47:56.812Z,77.97
2023-04-01T01:48:56.776Z,76.72
2023-04-01T01:49:56.813Z,80.78
2023-04-01T01:50:56.838Z,86.34
2023-04-01T01:51:56.793Z,80.06
2023-04-01T01:52:56.872Z,83.24
2023-04-01T01:53:56.817Z,77.17
2023-04-01T01:54:56.836Z,83.48
2023-04-01T01:55:56.847Z,87.51
2023-04-01T01:56:56.851Z,77.36
2023-04-01T01:57:56.883Z,80.03
2023-04-01T01:58:56.875Z,78.62
2023-04-01T01:59:56.879Z,66.76
2023-04-01T02:00:56.900Z,75.32
2023-04-01T02:01:56.984Z,80.99
2023-04-01T02:02:56.895Z,86.53
2023-04-01T02:03:56.902Z,86.41
2023-04-01T02:04:57.035Z,85.54
2023-04-01T02:05:56.915Z,85.78
2023-04-01T02:06:56.910Z,87.28
2023-04-01T02:07:56.940Z,88.29
2023-04-01T02:08:56.943Z,83.64
2023-04-01T02:09:56.952Z,81.31
2023-04-01T02:10:56.945Z,77.91
2023-04-01T02:11:56.956Z,80.29
2023-04-01T02:12:56.979Z,87.32
2023-04-01T02:13:56.974Z,87.33
2023-04-01T02:14:56.993Z,86.47
2023-04-01T02:15:57.009Z,81.39
2023-04-01T02:16:57.021Z,80.69
2023-04-01T02:17:57.038Z,85.09
2023-04-01T02:18:57.041Z,74.35
2023-04-01T02:19:57.084Z,78.02
2023-04-01T02:20:57.061Z,81.16
2023-04-01T02:21:57.059Z,84.98
2023-04-01T02:22:57.080Z,84.40
2023-04-01T02:23:57.071Z,81.80
2023-04-01T02:24:57.097Z,84.48
2023-04-01T02:25:57.092Z,83.97
2023-04-01T02:26:57.096Z,85.54
2023-04-01T02:27:57.109Z,80.38
2023-04-01T02:28:57.101Z,78.84
2023-04-01T02:29:57.113Z,82.45
2023-04-01T02:30:57.125Z,83.47
2023-04-01T02:31:57.139Z,80.32
2023-04-01T02:32:57.230Z,74.56
2023-04-01T02:33:57.161Z,78.23
2023-04-01T02:34:57.185Z,72.43
2023-04-01T02:35:57.184Z,83.59
2023-04-01T02:36:57.194Z,85.88
2023-04-01T02:37:57.193Z,75.47
2023-04-01T02:38:57.210Z,81.77
2023-04-01T02:39:57.219Z,84.54
2023-04-01T02:40:57.256Z,83.10
2023-04-01T02:41:57.235Z,79.03
2023-04-01T02:42:57.248Z,82.58
2023-04-01T02:43:57.272Z,70.39
2023-04-01T02:44:57.273Z,70.65
2023-04-01T02:45:57.317Z,80.94
2023-04-01T02:46:57.380Z,81.27
2023-04-01T02:47:57.309Z,76.22
2023-04-01T02:48:57.320Z,78.80
2023-04-01T02:49:57.326Z,81.74
2023-04-01T02:50:57.342Z,80.00
2023-04-01T02:51:57.342Z,80.12
2023-04-01T02:52:57.363Z,78.66
2023-04-01T02:53:57.389Z,78.43
2023-04-01T02:54:57.392Z,82.84
2023-04-01T02:55:57.397Z,81.35
2023-04-01T02:56:57.518Z,82.27
2023-04-01T02:57:57.409Z,88.89
2023-04-01T02:58:57.419Z,91.58
2023-04-01T02:59:57.453Z,84.02
2023-04-01T03:00:57.476Z,93.50
2023-04-01T03:01:57.478Z,92.40
2023-04-01T03:02:57.618Z,86.72
2023-04-01T03:03:57.510Z,88.42
2023-04-01T03:04:57.545Z,85.19
2023-04-01T03:05:57.535Z,85.67
2023-04-01T03:06:57.561Z,89.74
2023-04-01T03:07:57.633Z,92.69
2023-04-01T03:08:57.571Z,89.55
2023-04-01T03:09:57.614Z,86.24
2023-04-01T03:10:59.558Z,89.35
2023-04-01T03:11:57.627Z,90.21
2023-04-01T03:12:57.622Z,91.32
2023-04-01T03:13:57.593Z,91.59
2023-04-01T03:14:57.622Z,87.75
2023-04-01T03:15:58.583Z,88.13
2023-04-01T03:16:57.665Z,88.37
2023-04-01T03:17:57.589Z,88.60
2023-04-01T03:18:57.561Z,87.61
2023-04-01T03:19:57.569Z,88.68
2023-04-01T03:20:57.568Z,91.27
2023-04-01T03:21:57.564Z,85.60
2023-04-01T03:22:57.534Z,82.29
2023-04-01T03:23:57.537Z,90.19
2023-04-01T03:24:57.531Z,91.33
2023-04-01T03:25:57.547Z,92.11
2023-04-01T03:26:57.516Z,87.04
2023-04-01T03:27:57.538Z,90.86
2023-04-01T03:28:57.491Z,89.42
2023-04-01T03:29:57.578Z,90.62
2023-04-01T03:30:57.573Z,89.45
2023-04-01T03:31:57.470Z,87.04
2023-04-01T03:32:57.523Z,84.44
2023-04-01T03:33:57.459Z,87.97
2023-04-01T03:34:57.465Z,85.06
2023-04-01T03:35:57.459Z,86.57
2023-04-01T03:36:57.458Z,90.37
2023-04-01T03:37:57.438Z,90.70
2023-04-01T03:38:57.429Z,91.03
2023-04-01T03:39:57.453Z,91.53
2023-04-01T03:40:57.428Z,81.36
2023-04-01T03:41:57.429Z,78.17
2023-04-01T03:42:57.522Z,76.28
2023-04-01T03:43:57.451Z,79.59
2023-04-01T03:44:57.451Z,89.98
2023-04-01T03:45:57.467Z,87.25
2023-04-01T03:46:57.497Z,84.88
2023-04-01T03:47:57.547Z,88.32
2023-04-01T03:48:57.538Z,88.57
2023-04-01T03:49:57.586Z,85.40
2023-04-01T03:50:57.562Z,85.44
2023-04-01T03:51:57.628Z,82.79
2023-04-01T03:52:57.606Z,83.80
2023-04-01T03:53:57.590Z,79.43
2023-04-01T03:54:57.669Z,85.16
2023-04-01T03:55:57.669Z,88.48
2023-04-01T03:56:57.722Z,90.07
2023-04-01T03:57:57.671Z,83.89
2023-04-01T03:58:57.661Z,85.83
2023-04-01T03:59:57.722Z,90.47
2023-04-01T04:00:57.693Z,89.07
2023-04-01T04:01:57.732Z,84.91
2023-04-01T04:02:57.763Z,83.21
2023-04-01T04:03:57.819Z,78.47
2023-04-01T04:04:57.767Z,86.66
2023-04-01T04:05:57.785Z,85.99
2023-04-01T04:06:57.779Z,86.50
2023-04-01T04:07:57.812Z,87.26
2023-04-01T04:08:57.825Z,91.13
2023-04-01T04:09:57.832Z,92.14
2023-04-01T04:10:57.879Z,90.01
2023-04-01T04:11:57.856Z,89.74
2023-04-01T04:12:57.866Z,82.04
2023-04-01T04:13:58.380Z,83.68
2023-04-01T04:14:57.902Z,85.12
2023-04-01T04:15:57.930Z,88.57
2023-04-01T04:16:57.921Z,92.46
2023-04-01T04:17:58.020Z,91.67
2023-04-01T04:18:57.937Z,83.77
2023-04-01T04:19:57.963Z,84.97
2023-04-01T04:20:57.973Z,85.91
2023-04-01T04:21:58.007Z,93.46
2023-04-01T04:22:57.996Z,89.93
2023-04-01T04:23:57.983Z,89.64
2023-04-01T04:24:58.016Z,92.13
2023-04-01T04:25:58.030Z,87.05
2023-04-01T04:26:58.030Z,86.36
2023-04-01T04:27:58.056Z,82.98
2023-04-01T04:28:58.078Z,86.62
2023-04-01T04:29:58.102Z,89.55
2023-04-01T04:30:58.084Z,82.58
2023-04-01T04:31:58.242Z,82.89
2023-04-01T04:32:58.151Z,86.03
2023-04-01T04:33:58.144Z,85.56
2023-04-01T04:34:58.151Z,90.59
2023-04-01T04:35:58.206Z,89.11
2023-04-01T04:36:58.180Z,89.00
2023-04-01T04:37:58.165Z,90.89
2023-04-01T04:38:58.194Z,86.98
2023-04-01T04:39:58.213Z,83.44
2023-04-01T04:40:58.202Z,90.63
2023-04-01T04:41:58.216Z,91.09
2023-04-01T04:42:58.241Z,91.85
2023-04-01T04:43:58.268Z,95.56
2023-04-01T04:44:58.282Z,96.90
2023-04-01T04:45:58.292Z,94.43
2023-04-01T04:46:58.573Z,94.50
2023-04-01T04:47:58.357Z,93.78
2023-04-01T04:48:58.338Z,93.14
2023-04-01T04:49:58.341Z,96.28
2023-04-01T04:50:58.328Z,95.38
2023-04-01T04:51:58.359Z,97.08
2023-04-01T04:52:58.365Z,95.81
2023-04-01T04:53:58.391Z,97.08
2023-04-01T04:54:58.409Z,91.54
2023-04-01T04:55:58.416Z,95.81
2023-04-01T04:56:58.482Z,93.67
2023-04-01T04:57:58.489Z,91.38
2023-04-01T04:58:58.472Z,99.80
2023-04-01T04:59:58.498Z,94.99
2023-04-01T05:00:58.555Z,95.17
2023-04-01T05:01:58.514Z,96.33
2023-04-01T05:02:58.632Z,97.58
2023-04-01T05:03:58.543Z,93.85
2023-04-01T05:04:58.551Z,94.00
2023-04-01T05:05:58.567Z,95.83
2023-04-01T05:06:58.567Z,97.20
2023-04-01T05:07:58.604Z,100.08
2023-04-01T05:08:58.574Z,100.64
2023-04-01T05:09:58.597Z,96.28
2023-04-01T05:10:58.613Z,95.19
2023-04-01T05:11:58.645Z,92.99
2023-04-01T05:12:58.627Z,93.83
2023-04-01T05:13:58.641Z,92.90
2023-04-01T05:14:58.650Z,93.53
2023-04-01T05:15:58.690Z,95.39
2023-04-01T05:16:58.689Z,90.86
2023-04-01T05:17:58.741Z,92.89
2023-04-01T05:18:58.722Z,91.33
2023-04-01T05:19:58.725Z,92.78
2023-04-01T05:20:58.744Z,100.57
2023-04-01T05:21:58.745Z,99.53
2023-04-01T05:22:58.779Z,95.18
2023-04-01T05:23:58.786Z,99.40
2023-04-01T05:24:58.786Z,100.61
2023-04-01T05:25:58.821Z,97.77
2023-04-01T05:26:58.820Z,94.33
2023-04-01T05:27:58.857Z,94.54
2023-04-01T05:28:58.873Z,94.13
2023-04-01T05:29:58.862Z,93.40
2023-04-01T05:30:58.938Z,90.90
2023-04-01T05:31:58.915Z,90.71
2023-04-01T05:32:58.991Z,98.56
2023-04-01T05:33:58.905Z,91.48
2023-04-01T05:34:58.936Z,96.49
2023-04-01T05:35:58.984Z,100.44
2023-04-01T05:36:58.953Z,102.40
2023-04-01T05:37:58.964Z,100.36
2023-04-01T05:38:58.960Z,99.81
2023-04-01T05:39:58.961Z,95.24
2023-04-01T05:40:58.974Z,98.63
2023-04-01T05:41:58.987Z,99.07
2023-04-01T05:42:59.000Z,98.40
2023-04-01T05:43:58.992Z,96.00
2023-04-01T05:44:59.008Z,102.52
2023-04-01T05:45:59.044Z,102.24
2023-04-01T05:46:59.011Z,102.82
2023-04-01T05:47:59.095Z,105.88
2023-04-01T05:48:59.054Z,102.75
2023-04-01T05:49:59.033Z,107.23
2023-04-01T05:50:59.045Z,103.34
2023-04-01T05:51:59.065Z,99.10
2023-04-01T05:52:59.091Z,100.87
2023-04-01T05:53:59.076Z,100.09
2023-04-01T05:54:59.094Z,99.89
2023-04-01T05:55:59.100Z,102.40
2023-04-01T05:56:59.143Z,101.62
2023-04-01T05:57:59.108Z,103.41
2023-04-01T05:58:59.114Z,101.98
2023-04-01T05:59:59.165Z,106.36
2023-04-01T06:01:08.522Z,104.63
2023-04-01T06:02:00.269Z,104.89
2023-04-01T06:02:59.172Z,104.92
2023-04-01T06:03:59.291Z,104.00
2023-04-01T06:04:59.086Z,106.26
2023-04-01T06:05:59.088Z,102.87
2023-04-01T06:06:59.082Z,103.49
2023-04-01T06:07:59.094Z,103.35
2023-04-01T06:08:59.066Z,101.41
2023-04-01T06:09:59.064Z,104.71
2023-04-01T06:10:59.071Z,102.22
2023-04-01T06:11:59.034Z,99.84
2023-04-01T06:12:59.030Z,103.01
2023-04-01T06:13:59.041Z,102.19
2023-04-01T06:14:59.034Z,102.17
2023-04-01T06:15:59.044Z,104.57
2023-04-01T06:16:59.015Z,102.34
2023-04-01T06:17:59.134Z,99.18
2023-04-01T06:18:59.002Z,103.28
2023-04-01T06:19:58.993Z,98.48
2023-04-01T06:20:58.971Z,103.23
2023-04-01T06:21:58.993Z,103.00
2023-04-01T06:22:58.980Z,101.46
2023-04-01T06:23:58.974Z,105.43
2023-04-01T06:24:58.952Z,100.41
2023-04-01T06:25:58.947Z,101.71
2023-04-01T06:26:58.947Z,100.72
2023-04-01T06:27:58.937Z,101.22
2023-04-01T06:28:58.949Z,99.12
2023-04-01T06:29:58.913Z,101.46
2023-04-01T06:30:58.908Z,102.88
2023-04-01T06:31:58.948Z,102.92
2023-04-01T06:32:58.936Z,102.35
2023-04-01T06:33:58.904Z,101.37
2023-04-01T06:34:58.876Z,101.47
2023-04-01T06:35:58.954Z,101.46
2023-04-01T06:36:58.915Z,99.26
2023-04-01T06:37:58.970Z,100.83
2023-04-01T06:38:59.030Z,99.33
2023-04-01T06:39:59.060Z,101.28
2023-04-01T06:40:59.142Z,99.60
2023-04-01T06:41:59.188Z,102.38
2023-04-01T06:42:59.239Z,100.97
2023-04-01T06:43:59.284Z,99.24
2023-04-01T06:44:59.357Z,98.09
2023-04-01T06:45:59.463Z,100.66
2023-04-01T06:46:59.448Z,97.03
2023-04-01T06:47:59.567Z,97.42
2023-04-01T06:48:59.576Z,97.61
2023-04-01T06:49:59.646Z,98.21
2023-04-01T06:50:59.690Z,97.52
2023-04-01T06:51:59.753Z,95.84
2023-04-01T06:52:59.797Z,95.04
2023-04-01T06:53:59.868Z,96.08
2023-04-01T06:54:59.956Z,98.52
2023-04-01T06:55:59.956Z,94.90
2023-04-01T06:57:00.073Z,94.32
2023-04-01T06:58:00.069Z,95.15
2023-04-01T06:59:00.121Z,98.47
2023-04-01T07:00:00.154Z,97.62
2023-04-01T07:01:00.260Z,94.36
2023-04-01T07:02:00.281Z,95.18
2023-04-01T07:03:00.315Z,95.73
2023-04-01T07:04:00.467Z,93.85
2023-04-01T07:05:00.429Z,94.60
2023-04-01T07:06:00.445Z,93.90
2023-04-01T07:07:00.496Z,93.16
2023-04-01T07:08:00.543Z,92.70
2023-04-01T07:09:01.248Z,94.20
2023-04-01T07:10:00.675Z,93.99
2023-04-01T07:11:00.698Z,93.77
2023-04-01T07:12:00.728Z,91.00
2023-04-01T07:13:00.767Z,91.27
2023-04-01T07:14:00.837Z,92.04
2023-04-01T07:15:00.880Z,91.94
2023-04-01T07:16:00.897Z,91.70
2023-04-01T07:17:00.981Z,91.41
2023-04-01T07:18:01.012Z,94.17
2023-04-01T07:19:01.365Z,91.44
2023-04-01T07:20:01.372Z,96.64
2023-04-01T07:21:01.081Z,97.28
2023-04-01T07:22:01.093Z,93.17
2023-04-01T07:23:01.151Z,93.52
2023-04-01T07:24:01.171Z,93.38
2023-04-01T07:25:01.200Z,96.34
2023-04-01T07:26:01.256Z,95.23
2023-04-01T07:27:01.273Z,95.92
2023-04-01T07:28:01.309Z,97.39
2023-04-01T07:29:01.350Z,96.15
2023-04-01T07:30:01.410Z,97.77
2023-04-01T07:31:01.412Z,96.71
2023-04-01T07:32:01.456Z,93.24
2023-04-01T07:33:01.518Z,89.36
2023-04-01T07:34:01.543Z,89.81
2023-04-01T07:35:01.633Z,86.42
2023-04-01T07:36:01.679Z,89.88
2023-04-01T07:37:01.656Z,86.48
2023-04-01T07:38:01.697Z,89.45
2023-04-01T07:39:01.804Z,87.82
2023-04-01T07:40:01.802Z,84.41
2023-04-01T07:41:01.830Z,87.39
2023-04-01T07:42:01.854Z,83.07
2023-04-01T07:43:01.910Z,85.14
2023-04-01T07:44:01.989Z,85.45
2023-04-01T07:45:01.988Z,84.99
2023-04-01T07:46:02.045Z,87.33
2023-04-01T07:47:02.080Z,87.72
2023-04-01T07:48:02.179Z,85.56
2023-04-01T07:49:02.170Z,87.04
2023-04-01T07:50:02.201Z,83.88
2023-04-01T07:51:02.233Z,85.77
2023-04-01T07:52:02.302Z,83.71
2023-04-01T07:53:02.315Z,83.69
2023-04-01T07:54:02.404Z,82.83
2023-04-01T07:55:02.399Z,82.74
2023-04-01T07:56:02.442Z,82.12
2023-04-01T07:57:02.480Z,82.85
2023-04-01T07:58:02.495Z,84.58
2023-04-01T07:59:02.532Z,84.93
2023-04-01T08:00:02.530Z,82.70
2023-04-01T08:01:02.566Z,82.96
2023-04-01T08:02:02.580Z,86.04
2023-04-01T08:03:02.726Z,83.32
2023-04-01T08:04:02.809Z,82.15
2023-04-01T08:05:02.750Z,79.66
2023-04-01T08:06:02.681Z,79.07
2023-04-01T08:07:02.703Z,84.81
2023-04-01T08:08:02.725Z,86.48
2023-04-01T08:09:02.721Z,87.64
2023-04-01T08:10:02.756Z,90.77
2023-04-01T08:11:02.766Z,85.65
2023-04-01T08:12:02.793Z,90.01
2023-04-01T08:13:02.814Z,91.88
2023-04-01T08:14:02.840Z,94.84
2023-04-01T08:15:02.865Z,95.68
2023-04-01T08:16:02.915Z,95.69
2023-04-01T08:17:02.890Z,93.93
2023-04-01T08:18:02.987Z,91.12
2023-04-01T08:19:02.954Z,92.93
2023-04-01T08:20:02.983Z,99.90
2023-04-01T08:21:03.009Z,93.34
2023-04-01T08:22:03.023Z,89.69
2023-04-01T08:23:03.050Z,94.22
2023-04-01T08:24:03.085Z,93.25
2023-04-01T08:25:03.105Z,93.45
2023-04-01T08:26:03.155Z,95.08
2023-04-01T08:27:03.144Z,89.08
2023-04-01T08:28:03.201Z,87.42
2023-04-01T08:29:03.219Z,85.35
2023-04-01T08:30:03.229Z,86.00
2023-04-01T08:31:03.254Z,84.15
2023-04-01T08:32:03.335Z,81.65
2023-04-01T08:33:03.368Z,83.75
2023-04-01T08:34:03.306Z,80.61
2023-04-01T08:35:03.337Z,77.16
2023-04-01T08:36:03.395Z,76.75
2023-04-01T08:37:03.400Z,72.00
2023-04-01T08:38:03.442Z,68.53
2023-04-01T08:39:03.455Z,70.77
2023-04-01T08:40:03.458Z,70.70
2023-04-01T08:41:03.459Z,67.22
2023-04-01T08:42:03.493Z,62.83
2023-04-01T08:43:03.529Z,65.99
2023-04-01T08:44:03.525Z,66.25
2023-04-01T08:45:03.550Z,61.91
2023-04-01T08:46:03.625Z,60.33
2023-04-01T08:47:03.595Z,59.14
2023-04-01T08:48:03.693Z,58.51
2023-04-01T08:49:03.666Z,57.16
2023-04-01T08:50:03.680Z,55.51
2023-04-01T08:51:05.358Z,56.56
2023-04-01T08:52:03.692Z,53.85
2023-04-01T08:53:03.668Z,53.08
2023-04-01T08:54:03.660Z,51.72
2023-04-01T08:55:03.656Z,50.05
2023-04-01T08:56:03.669Z,58.37
2023-04-01T08:57:03.676Z,45.08
2023-04-01T08:58:03.632Z,50.80
2023-04-01T08:59:03.639Z,53.70
2023-04-01T09:00:03.629Z,51.93
2023-04-01T09:01:03.611Z,54.38
2023-04-01T09:02:03.649Z,45.34
2023-04-01T09:03:03.847Z,47.73
2023-04-01T09:04:03.742Z,45.78
2023-04-01T09:05:03.602Z,47.29
2023-04-01T09:06:03.592Z,52.19
2023-04-01T09:07:03.564Z,39.57
2023-04-01T09:08:03.585Z,33.00
2023-04-01T09:09:03.558Z,30.72
2023-04-01T09:10:03.574Z,26.88
2023-04-01T09:11:03.566Z,32.21
2023-04-01T09:12:03.577Z,26.33
2023-04-01T09:13:03.532Z,32.54
2023-04-01T09:14:03.527Z,31.98
2023-04-01T09:15:03.547Z,37.66
2023-04-01T09:16:03.591Z,31.41
2023-04-01T09:17:03.517Z,30.02
2023-04-01T09:18:03.581Z,28.00
2023-04-01T09:19:03.486Z,24.92
2023-04-01T09:20:03.490Z,26.83
2023-04-01T09:21:03.509Z,26.49
2023-04-01T09:22:03.481Z,25.20
2023-04-01T09:23:03.522Z,25.00
2023-04-01T09:24:03.465Z,52.54
2023-04-01T09:25:03.459Z,36.60
2023-04-01T09:26:03.447Z,40.34
2023-04-01T09:27:03.461Z,49.06
2023-04-01T09:28:03.435Z,36.48
2023-04-01T09:29:03.404Z,27.91
2023-04-01T09:30:03.423Z,29.26
2023-04-01T09:31:03.426Z,28.12
2023-04-01T09:32:03.402Z,26.82
2023-04-01T09:33:03.385Z,27.11
2023-04-01T09:34:03.384Z,25.00
2023-04-01T09:35:03.362Z,25.00
2023-04-01T09:36:03.391Z,26.34
2023-04-01T09:37:03.341Z,33.51
2023-04-01T09:38:03.352Z,31.65
2023-04-01T09:39:03.343Z,28.23
2023-04-01T09:40:03.351Z,32.35
2023-04-01T09:41:03.307Z,38.47
2023-04-01T09:42:03.315Z,37.81
2023-04-01T09:43:03.298Z,43.05
2023-04-01T09:44:03.292Z,37.92
2023-04-01T09:45:03.315Z,30.78
2023-04-01T09:46:03.300Z,26.24
2023-04-01T09:47:03.275Z,40.16
2023-04-01T09:48:03.307Z,47.00
2023-04-01T09:49:03.265Z,45.81
2023-04-01T09:50:03.247Z,48.53
2023-04-01T09:51:03.250Z,50.24
2023-04-01T09:52:03.234Z,33.72
2023-04-01T09:53:03.243Z,48.10
2023-04-01T09:54:03.253Z,51.12
2023-04-01T09:55:03.226Z,45.55
2023-04-01T09:56:03.213Z,44.85
2023-04-01T09:57:03.248Z,40.52
2023-04-01T09:58:03.208Z,33.01
2023-04-01T09:59:03.187Z,30.39
2023-04-01T10:00:03.167Z,28.59
2023-04-01T10:01:03.189Z,27.72
2023-04-01T10:02:03.344Z,25.00
2023-04-01T10:03:03.198Z,27.27
2023-04-01T10:04:03.147Z,25.20
2023-04-01T10:05:03.130Z,26.36
2023-04-01T10:06:03.168Z,25.00
2023-04-01T10:07:03.123Z,34.82
2023-04-01T10:08:03.112Z,30.23
2023-04-01T10:09:03.116Z,24.99
2023-04-01T10:10:03.105Z,27.70
2023-04-01T10:11:03.103Z,28.99
2023-04-01T10:12:03.096Z,25.00
2023-04-01T10:13:03.075Z,26.52
2023-04-01T10:14:03.073Z,27.80
2023-04-01T10:15:03.076Z,34.90
2023-04-01T10:16:03.070Z,55.42
2023-04-01T10:17:03.045Z,42.81
2023-04-01T10:18:03.154Z,36.02
2023-04-01T10:19:03.037Z,38.15
2023-04-01T10:20:03.020Z,37.91
2023-04-01T10:21:03.037Z,47.94
2023-04-01T10:22:03.007Z,43.14
2023-04-01T10:23:03.010Z,43.99
2023-04-01T10:24:02.990Z,45.13
2023-04-01T10:25:05.574Z,36.89
2023-04-01T10:26:02.972Z,28.28
2023-04-01T10:27:02.973Z,27.29
2023-04-01T10:28:02.953Z,45.88
2023-04-01T10:29:02.953Z,58.37
2023-04-01T10:30:02.973Z,53.50
2023-04-01T10:31:02.970Z,34.92
2023-04-01T10:32:03.003Z,25.00
2023-04-01T10:33:02.941Z,28.14
2023-04-01T10:34:02.926Z,41.93
2023-04-01T10:35:02.925Z,36.73
2023-04-01T10:36:03.006Z,35.77
2023-04-01T10:37:02.907Z,40.05
2023-04-01T10:38:02.899Z,39.37
2023-04-01T10:39:02.889Z,29.61
2023-04-01T10:40:02.881Z,28.52
2023-04-01T10:41:02.882Z,41.74
2023-04-01T10:42:02.853Z,59.67
2023-04-01T10:43:02.851Z,49.87
2023-04-01T10:44:02.851Z,53.70
2023-04-01T10:45:02.845Z,54.12
2023-04-01T10:46:02.858Z,52.35
2023-04-01T10:47:02.813Z,38.87
2023-04-01T10:48:02.951Z,31.04
2023-04-01T10:49:02.846Z,28.68
2023-04-01T10:50:02.828Z,36.70
2023-04-01T10:51:02.821Z,38.70
2023-04-01T10:52:02.793Z,44.24
2023-04-01T10:53:03.607Z,57.87
2023-04-01T10:54:02.777Z,69.34
2023-04-01T10:55:02.775Z,58.09
2023-04-01T10:56:02.760Z,54.77
2023-04-01T10:57:02.793Z,50.38
2023-04-01T10:58:02.769Z,50.71
2023-04-01T10:59:02.766Z,47.99
2023-04-01T11:00:02.754Z,52.09
2023-04-01T11:01:02.764Z,43.21
2023-04-01T11:02:11.501Z,46.03
2023-04-01T11:03:03.760Z,46.20
2023-04-01T11:04:02.708Z,46.48
2023-04-01T11:05:02.741Z,45.37
2023-04-01T11:06:02.680Z,47.13
2023-04-01T11:07:02.695Z,48.34
2023-04-01T11:08:06.456Z,53.48
2023-04-01T11:09:02.690Z,47.26
2023-04-01T11:10:02.675Z,44.50
2023-04-01T11:11:02.688Z,55.48
2023-04-01T11:12:02.652Z,53.11
2023-04-01T11:13:02.630Z,52.86
2023-04-01T11:14:02.627Z,31.26
2023-04-01T11:15:02.637Z,61.97
2023-04-01T11:16:02.667Z,70.01
2023-04-01T11:17:02.633Z,69.04
2023-04-01T11:18:02.638Z,72.57
2023-04-01T11:19:02.599Z,64.37
2023-04-01T11:20:02.596Z,66.54
2023-04-01T11:21:02.572Z,62.49
2023-04-01T11:22:02.573Z,62.24
2023-04-01T11:23:02.570Z,42.90
2023-04-01T11:24:05.565Z,76.36
2023-04-01T11:25:02.541Z,76.44
2023-04-01T11:26:02.550Z,64.37
2023-04-01T11:27:02.533Z,59.66
2023-04-01T11:28:02.524Z,72.31
2023-04-01T11:29:02.556Z,70.65
2023-04-01T11:30:02.552Z,51.68
2023-04-01T11:31:02.571Z,30.90
2023-04-01T11:32:02.492Z,48.14
2023-04-01T11:33:02.603Z,59.20
2023-04-01T11:34:02.477Z,50.11
2023-04-01T11:35:02.484Z,60.40
2023-04-01T11:36:02.473Z,67.19
2023-04-01T11:37:02.481Z,58.29
2023-04-01T11:38:02.464Z,67.63
2023-04-01T11:39:02.462Z,56.91
2023-04-01T11:40:02.441Z,29.55
2023-04-01T11:41:02.440Z,28.35
2023-04-01T11:42:02.439Z,27.21
2023-04-01T11:43:02.422Z,25.21
2023-04-01T11:44:02.408Z,27.15
2023-04-01T11:45:02.426Z,25.66
2023-04-01T11:46:02.454Z,49.20
2023-04-01T11:47:02.392Z,46.63
2023-04-01T11:48:02.470Z,55.04
2023-04-01T11:49:02.390Z,73.84
2023-04-01T11:50:02.367Z,74.49
2023-04-01T11:51:02.385Z,46.58
2023-04-01T11:52:02.375Z,49.76
2023-04-01T11:53:02.344Z,52.22
2023-04-01T11:54:02.340Z,44.64
2023-04-01T11:55:02.333Z,48.31
2023-04-01T11:56:02.330Z,60.01
2023-04-01T11:57:02.321Z,63.02
2023-04-01T11:58:02.341Z,47.45
2023-04-01T11:59:02.342Z,29.83
2023-04-01T12:00:02.301Z,27.97
2023-04-01T12:01:02.305Z,62.77
2023-04-01T12:02:02.299Z,77.08
2023-04-01T12:03:02.338Z,66.79
2023-04-01T12:04:02.547Z,66.88
2023-04-01T12:05:02.371Z,63.55
2023-04-01T12:06:02.270Z,48.60
2023-04-01T12:07:02.250Z,36.13
2023-04-01T12:08:02.263Z,74.87
2023-04-01T12:09:02.258Z,93.73
2023-04-01T12:10:02.247Z,81.60
2023-04-01T12:11:02.225Z,71.94
2023-04-01T12:12:02.229Z,68.38
2023-04-01T12:13:02.352Z,84.39
2023-04-01T12:14:02.218Z,90.23
2023-04-01T12:15:02.227Z,93.42
2023-04-01T12:16:02.271Z,103.29
2023-04-01T12:17:02.189Z,110.51
2023-04-01T12:18:02.257Z,105.48
2023-04-01T12:19:02.164Z,91.10
2023-04-01T12:20:02.170Z,69.50
2023-04-01T12:21:02.154Z,66.29
2023-04-01T12:22:02.158Z,68.96
2023-04-01T12:23:02.160Z,90.63
2023-04-01T12:24:02.132Z,85.41
2023-04-01T12:25:02.121Z,94.25
2023-04-01T12:26:02.119Z,86.11
2023-04-01T12:27:02.119Z,89.46
2023-04-01T12:28:02.095Z,101.44
2023-04-01T12:29:02.113Z,97.08
2023-04-01T12:30:02.133Z,104.31
2023-04-01T12:31:02.099Z,115.14
2023-04-01T12:32:02.096Z,109.07
2023-04-01T12:33:02.193Z,114.88
2023-04-01T12:34:02.080Z,106.04
2023-04-01T12:35:02.062Z,92.17
2023-04-01T12:36:02.158Z,97.31
2023-04-01T12:37:02.035Z,104.65
2023-04-01T12:38:02.046Z,103.63
2023-04-01T12:39:02.066Z,92.93
2023-04-01T12:40:02.039Z,110.93
2023-04-01T12:41:02.016Z,93.40
2023-04-01T12:42:02.024Z,82.27
2023-04-01T12:43:01.991Z,51.98
2023-04-01T12:44:02.009Z,34.68
2023-04-01T12:45:01.978Z,85.87
2023-04-01T12:46:02.020Z,90.96
2023-04-01T12:47:01.984Z,95.45
2023-04-01T12:48:01.980Z,84.06
2023-04-01T12:49:01.949Z,84.22
2023-04-01T12:50:01.966Z,86.21
2023-04-01T12:51:01.956Z,91.86